Time;durP1;ratioP1;P1;durP2;ratioP2;P2;SDS_P1;SDS_P2;PMS_P1;PMS_P2;Temp;Humidity;BMP_temperature;BMP_pressure;BME280_temperature;BME280_humidity;BME280_pressure;Samples;Min_cycle;Max_cycle;Signal;HPM_P1;HPM_P2
2021/05/28 00:01:19;;;;;;;;;;;;;;;16.07;87.93;98724.70;1718581;83;20204;-84
2021/05/28 00:03:45;;;;;;;;;;;;;;;16.06;88.46;98732.20;1711475;84;20225;-85
2021/05/28 00:06:12;;;;;;;;;;;;;;;16.07;87.20;98726.00;1705875;84;20177;-85
2021/05/28 00:08:38;;;;;;;;;;;;;;;16.05;88.42;98720.47;1711316;84;20327;-85
2021/05/28 00:11:04;;;;;;;;;;;;;;;16.01;89.71;98727.65;1720823;83;20211;-85
2021/05/28 00:13:31;;;;;;;;;;;;;;;16.01;90.38;98730.74;1703313;83;20180;-85
2021/05/28 00:15:58;;;;;;;;;;;;;;;16.03;90.06;98732.81;1725413;83;20203;-85
2021/05/28 00:18:24;;;;;;;;;;;;;;;15.97;90.09;98738.39;1726853;83;20198;-84
2021/05/28 00:20:50;;;;;;;;;;;;;;;16.02;88.56;98731.14;1721321;83;20197;-86
2021/05/28 00:23:17;;;;;;;;;;;;;;;16.05;88.74;98728.34;1723372;83;20122;-85
2021/05/28 00:25:43;;;;;;;;;;;;;;;15.99;89.60;98727.36;1716466;83;20160;-85
2021/05/28 00:28:09;;;;;;;;;;;;;;;15.99;89.56;98732.12;1716160;83;20176;-85
2021/05/28 00:30:35;;;;;;;;;;;;;;;16.00;89.23;98725.97;1719805;83;20160;-85
2021/05/28 00:33:02;;;;;;;;;;;;;;;16.01;89.30;98718.47;1726707;83;20147;-85
2021/05/28 00:35:29;;;;;;;;;;;;;;;16.02;89.88;98714.94;1712342;83;20381;-83
2021/05/28 00:37:55;;;;;;;;;;;;;;;16.05;89.41;98710.83;1715533;83;20215;-85
2021/05/28 00:40:21;;;;;;;;;;;;;;;16.06;88.11;98708.59;1708060;83;20184;-85
2021/05/28 00:42:47;;;;;;;;;;;;;;;16.01;89.14;98705.36;1713853;83;20195;-83
2021/05/28 00:45:14;;;;;;;;;;;;;;;16.01;88.93;98717.16;1709968;83;20741;-83
2021/05/28 00:47:41;;;;;;;;;;;;;;;15.97;89.25;98713.02;1713018;83;20181;-85
2021/05/28 00:50:08;;;;;;;;;;;;;;;15.94;89.40;98719.75;1726870;83;20175;-86
2021/05/28 00:52:34;;;;;;;;;;;;;;;15.96;88.30;98718.36;1718358;83;20129;-85
2021/05/28 00:55:01;;;;;;;;;;;;;;;15.93;88.50;98714.58;1716053;83;20189;-85
2021/05/28 00:57:29;;;;;;;;;;;;;;;15.91;88.92;98714.17;1696533;85;20162;-86
2021/05/28 00:59:57;;;;;;;;;;;;;;;15.92;88.08;98720.29;1705757;84;20219;-85
2021/05/28 01:02:26;;;;;;;;;;;;;;;15.94;88.17;98724.15;1707206;80;20137;-86
2021/05/28 01:04:53;;;;;;;;;;;;;;;15.95;88.03;98726.66;1711456;84;20130;-85
2021/05/28 01:07:20;;;;;;;;;;;;;;;15.99;87.90;98730.81;1711203;84;20165;-86
2021/05/28 01:09:47;;;;;;;;;;;;;;;16.00;88.41;98727.28;1712776;84;20153;-84
2021/05/28 01:12:13;;;;;;;;;;;;;;;16.03;88.60;98726.27;1706859;84;20133;-85
2021/05/28 01:14:39;;;;;;;;;;;;;;;16.06;88.59;98728.27;1716791;84;20167;-86
2021/05/28 01:17:05;;;;;;;;;;;;;;;16.07;88.69;98727.31;1689321;83;20158;-86
2021/05/28 01:19:32;;;;;;;;;;;;;;;16.09;88.29;98731.17;1703520;84;20196;-86
2021/05/28 01:22:05;;;;;;;;;;;;;;;16.05;87.99;98725.72;1708049;84;20148;-85
2021/05/28 01:24:32;;;;;;;;;;;;;;;16.05;87.37;98721.31;1684878;84;20175;-85
2021/05/28 01:26:59;;;;;;;;;;;;;;;16.06;86.82;98733.51;1715843;84;20195;-86
2021/05/28 01:29:26;;;;;;;;;;;;;;;16.01;89.77;98734.67;1716622;84;20137;-85
2021/05/28 01:31:52;;;;;;;;;;;;;;;15.99;89.42;98729.50;1703328;84;20165;-86
2021/05/28 01:34:19;;;;;;;;;;;;;;;16.03;87.90;98728.41;1716805;84;20172;-85
2021/05/28 01:36:45;;;;;;;;;;;;;;;16.03;89.67;98732.34;1716882;84;20157;-86
2021/05/28 01:39:12;;;;;;;;;;;;;;;16.01;89.72;98725.50;1716665;84;20188;-85
2021/05/28 01:41:38;;;;;;;;;;;;;;;16.02;89.59;98728.05;1703085;84;20213;-83
2021/05/28 01:44:09;;;;;;;;;;;;;;;16.03;88.00;98727.10;1706665;84;20184;-85
2021/05/28 01:46:36;;;;;;;;;;;;;;;16.06;87.87;98731.36;1705252;84;20168;-85
2021/05/28 01:49:03;;;;;;;;;;;;;;;16.05;88.67;98730.48;1701476;85;20114;-86
2021/05/28 01:51:30;;;;;;;;;;;;;;;16.04;88.21;98727.50;1707960;84;20156;-86
2021/05/28 01:53:57;;;;;;;;;;;;;;;16.03;88.91;98731.03;1715886;84;20168;-86
2021/05/28 01:56:24;;;;;;;;;;;;;;;16.06;88.43;98733.51;1680184;85;20154;-85
2021/05/28 01:58:50;;;;;;;;;;;;;;;16.06;88.31;98745.78;1682881;84;20183;-85
2021/05/28 02:01:17;;;;;;;;;;;;;;;16.07;88.49;98744.83;1693712;84;20145;-85
2021/05/28 02:03:43;;;;;;;;;;;;;;;16.10;87.48;98743.37;1706583;84;20193;-85
2021/05/28 02:06:09;;;;;;;;;;;;;;;16.09;86.67;98741.23;1706736;84;20098;-85
2021/05/28 02:08:37;;;;;;;;;;;;;;;16.10;87.61;98749.45;1706726;84;20141;-86
2021/05/28 02:11:04;;;;;;;;;;;;;;;16.12;87.35;98743.30;1706785;84;20180;-86
2021/05/28 02:13:30;;;;;;;;;;;;;;;16.14;88.01;98742.28;1706655;84;20164;-85
2021/05/28 02:15:56;;;;;;;;;;;;;;;16.17;86.76;98747.81;1714524;83;20137;-85
2021/05/28 02:18:23;;;;;;;;;;;;;;;16.13;87.49;98749.75;1718790;83;20435;-85
2021/05/28 02:20:49;;;;;;;;;;;;;;;16.08;87.89;98748.69;1693758;84;20221;-85
2021/05/28 02:23:16;;;;;;;;;;;;;;;16.05;87.82;98746.69;1711212;83;20161;-86
2021/05/28 02:25:42;;;;;;;;;;;;;;;16.01;87.47;98746.00;1715027;83;20171;-86
2021/05/28 02:28:08;;;;;;;;;;;;;;;15.98;85.93;98745.34;1722224;83;20220;-85
2021/05/28 02:30:35;;;;;;;;;;;;;;;15.90;87.36;98743.95;1716053;83;20125;-85
2021/05/28 02:33:01;;;;;;;;;;;;;;;15.89;86.91;98742.72;1706455;84;20164;-86
2021/05/28 02:35:28;;;;;;;;;;;;;;;15.87;87.79;98741.95;1712445;83;20165;-85
2021/05/28 02:37:54;;;;;;;;;;;;;;;15.83;88.81;98741.27;1721076;83;20210;-85
2021/05/28 02:40:21;;;;;;;;;;;;;;;15.81;88.94;98738.34;1707092;83;20171;-86
2021/05/28 02:42:47;;;;;;;;;;;;;;;15.80;87.38;98736.20;1712488;84;20205;-85
2021/05/28 02:45:14;;;;;;;;;;;;;;;15.81;87.61;98732.63;1711455;84;20132;-85
2021/05/28 02:47:40;;;;;;;;;;;;;;;15.82;87.74;98727.79;1712479;83;20133;-85
2021/05/28 02:50:07;;;;;;;;;;;;;;;15.83;88.74;98735.19;1712306;84;20156;-85
2021/05/28 02:52:33;;;;;;;;;;;;;;;15.87;86.61;98731.47;1717070;83;20179;-84
2021/05/28 02:54:59;;;;;;;;;;;;;;;15.88;89.01;98730.56;1721833;83;20132;-85
2021/05/28 02:57:26;;;;;;;;;;;;;;;15.92;89.15;98729.47;1719209;82;20667;-84
2021/05/28 02:59:52;;;;;;;;;;;;;;;15.96;89.16;98720.98;1719172;84;20133;-85
2021/05/28 03:02:18;;;;;;;;;;;;;;;15.97;88.19;98726.59;1719331;84;20148;-85
2021/05/28 03:04:44;;;;;;;;;;;;;;;15.96;87.96;98724.91;1698966;84;20191;-83
2021/05/28 03:07:11;;;;;;;;;;;;;;;15.96;88.42;98723.60;1719005;84;20248;-84
2021/05/28 03:09:37;;;;;;;;;;;;;;;15.97;87.66;98727.43;1718980;83;20184;-84
2021/05/28 03:12:04;;;;;;;;;;;;;;;15.96;88.88;98720.98;1705086;84;20185;-83
2021/05/28 03:14:30;;;;;;;;;;;;;;;15.97;89.90;98727.91;1687164;85;20194;-83
2021/05/28 03:16:56;;;;;;;;;;;;;;;15.96;91.12;98721.82;1694925;85;20227;-83
2021/05/28 03:19:28;;;;;;;;;;;;;;;15.94;90.83;98718.91;1713919;83;20209;-85
2021/05/28 03:24:35;;;;;;;;;;;;;;;15.95;90.71;98729.76;1689011;85;20153;-83
2021/05/28 03:27:03;;;;;;;;;;;;;;;15.95;90.66;98722.73;1697566;84;20195;-85
2021/05/28 03:29:29;;;;;;;;;;;;;;;15.93;89.42;98727.69;1673437;86;20166;-83
2021/05/28 03:31:55;;;;;;;;;;;;;;;15.89;90.42;98726.99;1699277;84;20178;-84
2021/05/28 03:34:22;;;;;;;;;;;;;;;15.87;90.20;98731.00;1675378;86;20168;-82
2021/05/28 03:36:48;;;;;;;;;;;;;;;15.87;89.59;98732.78;1690884;84;20174;-84
2021/05/28 03:39:14;;;;;;;;;;;;;;;15.79;90.11;98725.78;1692729;85;20263;-84
2021/05/28 03:41:41;;;;;;;;;;;;;;;15.82;88.88;98731.72;1700612;84;20194;-84
2021/05/28 03:44:07;;;;;;;;;;;;;;;15.79;90.88;98728.41;1699416;83;20182;-83
2021/05/28 03:46:34;;;;;;;;;;;;;;;15.83;90.17;98727.31;1699924;84;20166;-83
2021/05/28 03:49:00;;;;;;;;;;;;;;;15.87;90.71;98724.92;1700742;84;20179;-84
2021/05/28 03:51:26;;;;;;;;;;;;;;;15.87;89.52;98734.09;1674987;84;20185;-84
2021/05/28 03:53:53;;;;;;;;;;;;;;;15.87;90.70;98731.47;1676620;84;20197;-83
2021/05/28 03:56:19;;;;;;;;;;;;;;;15.90;89.07;98728.70;1664617;85;20192;-83
2021/05/28 03:58:45;;;;;;;;;;;;;;;15.87;89.91;98731.00;1694560;83;20213;-82
2021/05/28 04:01:12;;;;;;;;;;;;;;;15.81;91.67;98726.08;1671268;84;20209;-83
2021/05/28 04:03:38;;;;;;;;;;;;;;;15.79;90.28;98727.94;1670061;86;20206;-83
2021/05/28 04:06:04;;;;;;;;;;;;;;;15.79;91.34;98725.78;1669065;86;20188;-82
2021/05/28 04:08:31;;;;;;;;;;;;;;;15.80;90.29;98721.78;1672924;85;20206;-83
2021/05/28 04:10:57;;;;;;;;;;;;;;;15.83;89.74;98729.94;1680395;85;20179;-83
2021/05/28 04:13:28;;;;;;;;;;;;;;;15.85;91.79;98725.46;1693907;85;20178;-83
2021/05/28 04:15:55;;;;;;;;;;;;;;;15.82;91.33;98721.70;1680330;85;20184;-84
2021/05/28 04:18:21;;;;;;;;;;;;;;;15.83;90.78;98720.77;1668756;85;20113;-84
2021/05/28 04:20:47;;;;;;;;;;;;;;;15.81;91.20;98719.53;1681107;84;20119;-83
2021/05/28 04:23:13;;;;;;;;;;;;;;;15.83;91.77;98720.30;1668698;84;20220;-83
2021/05/28 04:25:40;;;;;;;;;;;;;;;15.85;90.32;98723.68;1670815;84;20185;-84
2021/05/28 04:28:06;;;;;;;;;;;;;;;15.85;90.38;98722.38;1671243;85;20638;-84
2021/05/28 04:30:32;;;;;;;;;;;;;;;15.85;91.68;98720.22;1667861;86;20165;-84
2021/05/28 04:32:58;;;;;;;;;;;;;;;15.87;91.57;98724.92;1660816;87;20160;-85
2021/05/28 04:35:24;;;;;;;;;;;;;;;15.88;92.35;98722.22;1666473;84;20193;-84
2021/05/28 04:37:51;;;;;;;;;;;;;;;15.94;90.55;98729.39;1703942;84;20150;-84
2021/05/28 04:40:18;;;;;;;;;;;;;;;15.96;91.21;98734.93;1694466;84;20191;-83
2021/05/28 04:42:44;;;;;;;;;;;;;;;15.96;91.48;98727.06;1670540;86;20153;-84
2021/05/28 04:45:11;;;;;;;;;;;;;;;15.99;90.00;98733.91;1674636;84;20193;-82
2021/05/28 04:47:37;;;;;;;;;;;;;;;16.00;91.62;98735.63;1704019;84;20343;-84
2021/05/28 04:50:04;;;;;;;;;;;;;;;16.06;91.75;98734.82;1704090;84;20181;-83
2021/05/28 04:52:30;;;;;;;;;;;;;;;16.11;91.35;98735.87;1675944;84;20213;-83
2021/05/28 04:54:56;;;;;;;;;;;;;;;16.16;90.95;98738.27;1669740;86;20164;-83
2021/05/28 04:57:23;;;;;;;;;;;;;;;16.15;90.77;98734.78;1665919;84;20177;-82
2021/05/28 04:59:49;;;;;;;;;;;;;;;16.15;90.02;98735.25;1702909;84;20162;-83
2021/05/28 05:02:15;;;;;;;;;;;;;;;16.15;90.46;98735.25;1696435;83;20147;-82
2021/05/28 05:04:41;;;;;;;;;;;;;;;16.09;89.58;98733.36;1696769;85;20206;-82
2021/05/28 05:07:08;;;;;;;;;;;;;;;16.01;89.33;98739.45;1701520;84;20532;-83
2021/05/28 05:09:35;;;;;;;;;;;;;;;16.00;89.59;98746.11;1702698;84;20165;-82
2021/05/28 05:12:01;;;;;;;;;;;;;;;16.01;91.23;98742.06;1697489;84;20206;-83
2021/05/28 05:14:27;;;;;;;;;;;;;;;16.02;89.29;98739.84;1698188;85;20178;-85
2021/05/28 05:16:53;;;;;;;;;;;;;;;16.02;90.22;98741.63;1698505;84;20150;-83
2021/05/28 05:19:20;;;;;;;;;;;;;;;15.99;90.69;98748.33;1700608;84;20198;-83
2021/05/28 05:21:49;;;;;;;;;;;;;;;15.97;90.43;98747.09;1706731;82;20158;-83
2021/05/28 05:24:16;;;;;;;;;;;;;;;15.94;91.93;98749.05;1733820;83;20240;-83
2021/05/28 05:26:42;;;;;;;;;;;;;;;15.85;91.64;98748.58;1707042;83;20158;-83
2021/05/28 05:29:09;;;;;;;;;;;;;;;15.83;91.67;98747.81;1698230;83;20139;-82
2021/05/28 05:31:37;;;;;;;;;;;;;;;15.81;93.17;98744.90;1698117;84;20175;-82
2021/05/28 05:34:04;;;;;;;;;;;;;;;15.79;91.61;98746.75;1703261;84;20150;-82
2021/05/28 05:36:30;;;;;;;;;;;;;;;15.74;91.39;98739.58;1703325;84;20178;-83
2021/05/28 05:38:56;;;;;;;;;;;;;;;15.73;90.84;98739.22;1704003;83;20162;-82
2021/05/28 05:41:25;;;;;;;;;;;;;;;15.69;90.78;98749.80;1698150;83;20186;-83
2021/05/28 05:43:51;;;;;;;;;;;;;;;15.67;90.22;98742.48;1684168;83;20175;-82
2021/05/28 05:46:17;;;;;;;;;;;;;;;15.68;90.96;98750.75;1715511;83;20220;-83
2021/05/28 05:48:44;;;;;;;;;;;;;;;15.63;90.65;98761.91;1692853;84;20180;-81
2021/05/28 05:51:10;;;;;;;;;;;;;;;15.65;90.54;98765.30;1707660;83;20227;-82
2021/05/28 05:53:36;;;;;;;;;;;;;;;15.62;91.85;98765.48;1705128;82;20229;-82
2021/05/28 05:56:04;;;;;;;;;;;;;;;15.65;91.19;98767.92;1700157;83;20222;-81
2021/05/28 05:58:30;;;;;;;;;;;;;;;15.63;92.20;98776.33;1701542;83;20205;-81
2021/05/28 06:00:56;;;;;;;;;;;;;;;15.63;93.31;98776.80;1697555;83;20181;-82
2021/05/28 06:03:23;;;;;;;;;;;;;;;15.63;93.10;98769.78;1673807;84;20215;-83
2021/05/28 06:05:49;;;;;;;;;;;;;;;15.66;92.03;98771.42;1693428;84;20170;-84
2021/05/28 06:08:15;;;;;;;;;;;;;;;15.64;93.33;98783.28;1702487;84;20177;-82
2021/05/28 06:10:42;;;;;;;;;;;;;;;15.68;91.41;98778.73;1701448;84;20213;-80
2021/05/28 06:13:08;;;;;;;;;;;;;;;15.58;92.21;98779.66;1692582;84;20178;-83
2021/05/28 06:15:35;;;;;;;;;;;;;;;15.53;92.08;98776.41;1677856;83;20193;-83
2021/05/28 06:18:02;;;;;;;;;;;;;;;15.49;91.46;98784.05;1694486;84;20198;-86
2021/05/28 06:20:29;;;;;;;;;;;;;;;15.25;92.77;98787.42;1688167;83;20189;-83
2021/05/28 06:22:56;;;;;;;;;;;;;;;15.27;91.32;98785.11;1702338;84;20162;-83
2021/05/28 06:25:23;;;;;;;;;;;;;;;15.16;91.62;98786.11;1728701;83;20184;-84
2021/05/28 06:27:49;;;;;;;;;;;;;;;15.10;91.89;98792.95;1690057;83;20178;-83
2021/05/28 06:30:17;;;;;;;;;;;;;;;15.07;91.93;98794.41;1699631;83;20181;-84
2021/05/28 06:32:43;;;;;;;;;;;;;;;15.04;91.71;98798.46;1703213;84;20158;-83
2021/05/28 06:35:10;;;;;;;;;;;;;;;15.01;92.20;98791.61;1700770;84;20210;-82
2021/05/28 06:37:36;;;;;;;;;;;;;;;14.95;92.64;98792.38;1702532;84;20199;-84
2021/05/28 06:40:05;;;;;;;;;;;;;;;14.91;92.36;98793.82;1685956;84;20228;-84
2021/05/28 06:42:32;;;;;;;;;;;;;;;14.93;92.64;98793.75;1701281;84;20209;-84
2021/05/28 06:44:58;;;;;;;;;;;;;;;14.90;92.70;98794.76;1703286;84;20158;-83
2021/05/28 06:47:25;;;;;;;;;;;;;;;14.82;92.42;98798.20;1696745;83;20195;-83
2021/05/28 06:49:52;;;;;;;;;;;;;;;14.78;92.76;98801.88;1697907;85;20190;-84
2021/05/28 06:52:19;;;;;;;;;;;;;;;14.70;92.83;98806.16;1703789;84;20266;-85
2021/05/28 06:54:46;;;;;;;;;;;;;;;14.71;93.15;98804.39;1704004;84;20195;-83
2021/05/28 06:57:12;;;;;;;;;;;;;;;14.71;93.67;98804.39;1703961;84;20185;-85
2021/05/28 06:59:39;;;;;;;;;;;;;;;14.74;93.33;98800.30;1704104;83;20095;-84
2021/05/28 07:02:06;;;;;;;;;;;;;;;14.77;93.47;98805.41;1704262;84;20528;-84
2021/05/28 07:04:33;;;;;;;;;;;;;;;14.77;93.65;98806.72;1704173;84;20185;-84
2021/05/28 07:07:00;;;;;;;;;;;;;;;14.82;92.44;98806.05;1703899;84;20150;-84
2021/05/28 07:09:26;;;;;;;;;;;;;;;14.80;92.56;98805.28;1704637;84;20200;-84
2021/05/28 07:11:52;;;;;;;;;;;;;;;14.82;93.16;98812.59;1704359;84;20182;-84
2021/05/28 07:14:18;;;;;;;;;;;;;;;14.80;92.69;98812.26;1703884;84;20161;-84
2021/05/28 07:16:45;;;;;;;;;;;;;;;14.84;91.81;98809.45;1703887;84;20154;-84
2021/05/28 07:19:11;;;;;;;;;;;;;;;14.79;92.67;98811.88;1704058;84;20182;-84
2021/05/28 07:21:37;;;;;;;;;;;;;;;14.78;92.66;98808.42;1703753;83;20166;-85
2021/05/28 07:24:04;;;;;;;;;;;;;;;14.83;91.96;98818.67;1733187;83;20171;-84
2021/05/28 07:26:31;;;;;;;;;;;;;;;14.77;92.34;98810.64;1717604;83;20153;-83
2021/05/28 07:28:59;;;;;;;;;;;;;;;14.77;92.06;98811.95;1705815;84;20193;-84
2021/05/28 07:31:25;;;;;;;;;;;;;;;14.84;91.54;98809.45;1696006;85;20190;-84
2021/05/28 07:33:52;;;;;;;;;;;;;;;14.85;91.39;98806.36;1703066;84;20190;-82
2021/05/28 07:36:21;;;;;;;;;;;;;;;14.81;91.17;98807.42;1702266;83;20139;-84
2021/05/28 07:38:48;;;;;;;;;;;;;;;14.83;90.41;98812.13;1719596;83;20250;-84
2021/05/28 07:41:14;;;;;;;;;;;;;;;14.79;90.50;98814.03;1690767;83;20201;-81
2021/05/28 07:43:41;;;;;;;;;;;;;;;14.79;90.51;98821.05;1677924;83;20169;-81
2021/05/28 07:46:08;;;;;;;;;;;;;;;14.73;91.33;98827.41;1710165;83;20202;-83
2021/05/28 07:48:34;;;;;;;;;;;;;;;14.79;91.07;98831.05;1661172;84;20196;-83
2021/05/28 07:51:01;;;;;;;;;;;;;;;14.76;92.67;98840.33;1700631;84;20549;-83
2021/05/28 07:53:28;;;;;;;;;;;;;;;14.77;92.63;98829.42;1702315;84;20182;-83
2021/05/28 07:55:58;;;;;;;;;;;;;;;14.76;92.82;98839.02;1716939;83;20281;-83
2021/05/28 07:58:24;;;;;;;;;;;;;;;14.72;92.10;98836.16;1695765;84;20181;-81
2021/05/28 08:00:52;;;;;;;;;;;;;;;14.81;92.07;98838.83;1676963;85;20285;-82
2021/05/28 08:03:19;;;;;;;;;;;;;;;14.93;91.19;98849.19;1676287;85;20271;-82
2021/05/28 08:05:49;;;;;;;;;;;;;;;14.88;91.75;98845.02;1679371;85;20183;-82
2021/05/28 08:08:14;;;;;;;;;;;;;;;14.89;92.00;98844.55;1669120;85;20418;-83
2021/05/28 08:10:40;;;;;;;;;;;;;;;14.83;92.33;98844.84;1676581;85;20158;-83
2021/05/28 08:13:07;;;;;;;;;;;;;;;14.88;92.45;98847.64;1683053;85;20175;-84
2021/05/28 08:15:33;;;;;;;;;;;;;;;14.89;92.86;98852.41;1677627;85;20574;-83
2021/05/28 08:18:00;;;;;;;;;;;;;;;15.00;91.99;98854.07;1691046;84;20173;-83
2021/05/28 08:20:27;;;;;;;;;;;;;;;14.96;92.51;98864.73;1661799;85;20180;-83
2021/05/28 08:22:54;;;;;;;;;;;;;;;15.00;92.20;98869.78;1681111;85;20199;-83
2021/05/28 08:25:21;;;;;;;;;;;;;;;14.99;92.23;98868.06;1670509;85;20311;-84
2021/05/28 08:27:47;;;;;;;;;;;;;;;14.99;92.32;98869.84;1671962;85;20206;-83
2021/05/28 08:30:14;;;;;;;;;;;;;;;15.02;91.43;98862.70;1667084;85;20703;-84
2021/05/28 08:32:41;;;;;;;;;;;;;;;15.03;92.32;98868.78;1683537;85;20169;-84
2021/05/28 08:35:08;;;;;;;;;;;;;;;15.04;91.59;98860.86;1686917;85;20195;-83
2021/05/28 08:37:35;;;;;;;;;;;;;;;15.06;91.21;98873.41;1683762;85;20202;-83
2021/05/28 08:40:01;;;;;;;;;;;;;;;15.05;91.15;98872.17;1688093;85;20163;-84
2021/05/28 08:42:30;;;;;;;;;;;;;;;15.08;90.42;98861.09;1679045;85;20183;-84
2021/05/28 08:44:57;;;;;;;;;;;;;;;15.03;90.91;98876.62;1680242;85;20217;-84
2021/05/28 08:47:24;;;;;;;;;;;;;;;14.99;91.49;98876.38;1675623;85;20347;-84
2021/05/28 08:49:51;;;;;;;;;;;;;;;14.97;91.46;98876.45;1675464;85;20329;-82
2021/05/28 08:52:20;;;;;;;;;;;;;;;15.04;91.30;98877.00;1682881;85;20187;-84
2021/05/28 08:54:49;;;;;;;;;;;;;;;14.97;90.84;98877.76;1688208;85;20225;-84
2021/05/28 08:57:18;;;;;;;;;;;;;;;15.04;90.99;98882.23;1685243;85;20210;-83
2021/05/28 08:59:48;;;;;;;;;;;;;;;15.00;90.33;98885.92;1690084;83;20382;-87
2021/05/28 09:02:35;;;;;;;;;;;;;;;15.06;90.34;98885.19;1653541;85;20258;-83
2021/05/28 09:05:10;;;;;;;;;;;;;;;15.13;89.96;98888.36;1647545;86;20186;-84
2021/05/28 09:07:37;;;;;;;;;;;;;;;15.13;90.63;98891.45;1645314;86;20196;-82
2021/05/28 09:10:24;;;;;;;;;;;;;;;15.22;89.52;98896.23;1663983;85;20200;-85
2021/05/28 09:12:50;;;;;;;;;;;;;;;15.18;89.34;98894.25;1645521;86;20219;-82
2021/05/28 09:15:21;;;;;;;;;;;;;;;15.08;89.61;98888.59;1649002;84;20253;-83
2021/05/28 09:17:49;;;;;;;;;;;;;;;15.13;90.31;98891.45;1664694;85;20566;-85
2021/05/28 09:20:17;;;;;;;;;;;;;;;15.21;89.50;98886.70;1646229;86;20218;-83
2021/05/28 09:22:43;;;;;;;;;;;;;;;15.16;89.98;98883.00;1667151;86;20181;-83
2021/05/28 09:25:10;;;;;;;;;;;;;;;15.27;89.17;98892.48;1664168;86;20622;-83
2021/05/28 09:27:37;;;;;;;;;;;;;;;15.31;88.89;98895.81;1655953;86;20151;-82
2021/05/28 09:30:15;;;;;;;;;;;;;;;15.25;89.23;98878.61;1652140;86;20216;-83
2021/05/28 09:32:44;;;;;;;;;;;;;;;15.28;89.45;98887.64;1666405;86;20180;-82
2021/05/28 09:35:13;;;;;;;;;;;;;;;15.30;89.73;98885.80;1667168;86;20177;-85
2021/05/28 09:37:46;;;;;;;;;;;;;;;15.35;90.01;98883.42;1658741;86;20257;-82
2021/05/28 09:40:17;;;;;;;;;;;;;;;15.40;89.35;98886.65;1665277;86;20191;-84
2021/05/28 09:43:00;;;;;;;;;;;;;;;15.34;91.02;98890.44;1660108;86;20199;-84
2021/05/28 09:45:38;;;;;;;;;;;;;;;15.35;90.77;98888.66;1642730;86;20171;-82
2021/05/28 09:48:17;;;;;;;;;;;;;;;15.38;91.60;98891.98;1651234;86;20222;-82
2021/05/28 09:50:49;;;;;;;;;;;;;;;15.49;91.10;98886.22;1660007;86;20227;-84
2021/05/28 09:53:33;;;;;;;;;;;;;;;15.48;90.40;98892.39;1663030;86;20185;-82
2021/05/28 09:56:03;;;;;;;;;;;;;;;15.53;90.18;98891.69;1666644;86;20184;-83
2021/05/28 09:58:32;;;;;;;;;;;;;;;15.64;90.77;98890.72;1655185;85;20198;-83
2021/05/28 10:01:10;;;;;;;;;;;;;;;15.68;89.96;98887.49;1651351;85;20186;-83
2021/05/28 10:03:38;;;;;;;;;;;;;;;15.60;90.18;98888.33;1677340;85;20179;-83
2021/05/28 10:06:05;;;;;;;;;;;;;;;15.72;89.72;98883.80;1675825;85;20164;-83
2021/05/28 10:08:31;;;;;;;;;;;;;;;15.67;90.22;98887.92;1678807;85;20151;-82
2021/05/28 10:10:59;;;;;;;;;;;;;;;15.75;91.05;98888.90;1690085;85;20525;-82
2021/05/28 10:13:28;;;;;;;;;;;;;;;15.89;90.58;98898.23;1690424;83;20182;-83
2021/05/28 10:15:56;;;;;;;;;;;;;;;16.01;90.73;98896.77;1684360;85;20298;-83
2021/05/28 10:18:23;;;;;;;;;;;;;;;16.03;90.06;98902.78;1718282;82;20207;-83
2021/05/28 10:20:54;;;;;;;;;;;;;;;16.03;88.70;98896.22;1681178;85;20128;-81
2021/05/28 10:23:22;;;;;;;;;;;;;;;16.03;89.36;98898.84;1668105;85;20577;-84
2021/05/28 10:25:54;;;;;;;;;;;;;;;15.91;89.21;98900.31;1662744;85;20187;-82
2021/05/28 10:28:22;;;;;;;;;;;;;;;16.03;89.38;98903.25;1667340;85;20165;-83
2021/05/28 10:30:51;;;;;;;;;;;;;;;16.12;89.21;98898.02;1666116;85;20573;-83
2021/05/28 10:33:22;;;;;;;;;;;;;;;16.12;87.60;98895.40;1684016;85;20167;-83
2021/05/28 10:35:51;;;;;;;;;;;;;;;16.13;89.04;98900.55;1681461;85;20217;-82
2021/05/28 10:38:36;;;;;;;;;;;;;;;16.20;87.70;98899.78;1671957;85;20167;-83
2021/05/28 10:41:09;;;;;;;;;;;;;;;16.31;87.20;98898.75;1687926;85;20179;-82
2021/05/28 10:43:38;;;;;;;;;;;;;;;16.29;85.74;98896.67;1687919;84;20309;-82
2021/05/28 10:46:06;;;;;;;;;;;;;;;16.30;85.53;98902.31;1685335;85;20254;-81
2021/05/28 10:48:43;;;;;;;;;;;;;;;16.23;84.56;98895.20;1683289;85;20183;-83
2021/05/28 10:51:14;;;;;;;;;;;;;;;16.26;84.48;98902.09;1688194;85;20190;-82
2021/05/28 10:53:43;;;;;;;;;;;;;;;16.23;83.76;98888.65;1683431;85;20171;-82
2021/05/28 10:56:13;;;;;;;;;;;;;;;16.32;84.95;98883.88;1688649;85;20578;-82
2021/05/28 10:58:51;;;;;;;;;;;;;;;16.24;83.56;98887.73;1686993;85;20222;-83
2021/05/28 11:01:52;;;;;;;;;;;;;;;16.17;82.37;98891.59;1666957;85;20170;-83
2021/05/28 11:04:31;;;;;;;;;;;;;;;16.21;84.55;98890.97;1682579;84;20186;-84
2021/05/28 11:07:02;;;;;;;;;;;;;;;16.27;83.33;98891.97;1689309;84;20190;-82
2021/05/28 11:09:39;;;;;;;;;;;;;;;16.26;83.23;98871.45;1707861;84;20204;-83
2021/05/28 11:12:12;;;;;;;;;;;;;;;16.33;84.05;98878.53;1684868;83;20221;-81
2021/05/28 11:14:41;;;;;;;;;;;;;;;16.34;84.20;98879.40;1655474;86;20162;-83
2021/05/28 11:17:13;;;;;;;;;;;;;;;16.40;83.88;98884.33;1653787;86;20527;-84
2021/05/28 11:19:43;;;;;;;;;;;;;;;16.45;83.68;98888.41;1648764;84;20202;-82
2021/05/28 11:22:14;;;;;;;;;;;;;;;16.43;83.18;98878.45;1675891;84;20238;-83
2021/05/28 11:24:51;;;;;;;;;;;;;;;16.54;82.69;98882.28;1693724;84;20257;-82
2021/05/28 11:27:24;;;;;;;;;;;;;;;16.66;83.26;98877.70;1684849;84;20166;-84
2021/05/28 11:30:03;;;;;;;;;;;;;;;16.72;82.68;98881.77;1687499;85;20178;-84
2021/05/28 11:32:42;;;;;;;;;;;;;;;16.67;82.69;98876.75;1714745;84;20471;-83
2021/05/28 11:35:15;;;;;;;;;;;;;;;16.83;83.44;98875.48;1718067;84;20227;-83
2021/05/28 11:37:44;;;;;;;;;;;;;;;16.97;83.20;98871.67;1687474;83;20194;-81
2021/05/28 11:40:16;;;;;;;;;;;;;;;17.08;82.51;98873.22;1687373;85;20163;-83
2021/05/28 11:42:43;;;;;;;;;;;;;;;17.11;81.76;98874.84;1691629;84;20207;-81
2021/05/28 11:45:11;;;;;;;;;;;;;;;17.12;81.56;98872.59;1684257;83;20166;-84
2021/05/28 11:47:38;;;;;;;;;;;;;;;17.17;81.14;98872.32;1686151;84;20159;-83
2021/05/28 11:50:08;;;;;;;;;;;;;;;17.37;80.15;98871.20;1672456;85;20172;-85
2021/05/28 11:52:35;;;;;;;;;;;;;;;17.44;80.41;98870.77;1688838;84;20217;-83
2021/05/28 11:55:10;;;;;;;;;;;;;;;17.42;79.93;98871.80;1672451;86;20108;-84
2021/05/28 11:57:37;;;;;;;;;;;;;;;17.65;80.82;98868.70;1683264;84;20174;-82
2021/05/28 12:00:09;;;;;;;;;;;;;;;17.70;78.12;98865.80;1683071;85;20360;-83
2021/05/28 12:02:47;;;;;;;;;;;;;;;17.84;79.03;98860.61;1697339;83;20182;-83
2021/05/28 12:05:23;;;;;;;;;;;;;;;17.83;78.06;98866.83;1681478;85;20235;-84
2021/05/28 12:07:51;;;;;;;;;;;;;;;18.06;78.77;98861.53;1706298;83;20225;-82
2021/05/28 12:10:18;;;;;;;;;;;;;;;18.19;78.37;98864.27;1703704;84;20194;-83
2021/05/28 12:13:04;;;;;;;;;;;;;;;18.29;77.52;98857.98;1696078;83;20265;-84
2021/05/28 12:15:36;;;;;;;;;;;;;;;18.31;76.45;98862.68;1697661;84;20169;-83
2021/05/28 12:18:18;;;;;;;;;;;;;;;18.56;77.55;98858.09;1695631;84;20186;-83
2021/05/28 12:20:47;;;;;;;;;;;;;;;18.49;76.22;98858.92;1683599;83;20174;-83
2021/05/28 12:23:16;;;;;;;;;;;;;;;18.52;75.54;98853.92;1700844;84;20177;-83
2021/05/28 12:25:45;;;;;;;;;;;;;;;18.69;75.98;98859.00;1702736;84;20219;-83
2021/05/28 12:28:30;;;;;;;;;;;;;;;18.65;74.65;98852.72;1699733;83;20150;-83
2021/05/28 12:31:06;;;;;;;;;;;;;;;18.75;74.21;98856.94;1695914;84;20184;-83
2021/05/28 12:33:34;;;;;;;;;;;;;;;18.55;73.45;98860.81;1697566;84;20185;-83
2021/05/28 12:36:04;;;;;;;;;;;;;;;18.53;73.33;98856.95;1701747;84;20170;-84
2021/05/28 12:38:36;;;;;;;;;;;;;;;18.58;74.76;98852.70;1694111;83;20202;-85
2021/05/28 12:41:04;;;;;;;;;;;;;;;18.50;73.94;98855.81;1700574;84;20147;-85
2021/05/28 12:43:31;;;;;;;;;;;;;;;18.70;74.01;98854.58;1697004;83;20181;-84
2021/05/28 12:45:58;;;;;;;;;;;;;;;18.76;73.71;98858.17;1693797;84;20106;-84
2021/05/28 12:48:41;;;;;;;;;;;;;;;18.69;73.32;98855.53;1703100;84;20489;-85
2021/05/28 12:51:08;;;;;;;;;;;;;;;18.84;73.39;98847.16;1716101;83;20214;-83
2021/05/28 12:53:36;;;;;;;;;;;;;;;19.04;73.77;98848.08;1695295;84;20209;-82
2021/05/28 12:56:04;;;;;;;;;;;;;;;19.36;73.64;98845.16;1680008;84;20158;-84